createdAt,value
2022-08-22T00:00:26.402Z,2.60
2022-08-22T00:01:26.388Z,2.70
2022-08-22T00:02:26.410Z,2.70
2022-08-22T00:02:54.355Z,2.20
2022-08-22T00:03:07.260Z,2.40
2022-08-22T00:03:08.442Z,2.70
2022-08-22T00:03:09.768Z,2.50
2022-08-22T00:03:10.107Z,2.20
2022-08-22T00:03:10.898Z,2.40
2022-08-22T00:03:26.364Z,2.70
2022-08-22T00:04:26.388Z,2.70
2022-08-22T00:05:26.332Z,3.00
2022-08-22T00:06:26.326Z,2.70
2022-08-22T00:07:26.316Z,2.30
2022-08-22T00:08:26.291Z,2.70
2022-08-22T00:09:26.295Z,2.90
2022-08-22T00:10:26.263Z,2.50
2022-08-22T00:11:26.254Z,3.30
2022-08-22T00:12:26.240Z,3.00
2022-08-22T00:13:26.235Z,3.10
2022-08-22T00:14:26.228Z,2.80
2022-08-22T00:15:42.550Z,3.10
2022-08-22T00:16:27.186Z,2.80
2022-08-22T00:17:26.173Z,2.40
2022-08-22T00:18:26.163Z,2.90
2022-08-22T00:19:26.161Z,2.90
2022-08-22T00:20:28.380Z,2.60
2022-08-22T00:21:26.126Z,2.50
2022-08-22T00:22:26.107Z,2.50
2022-08-22T00:23:26.092Z,2.70
2022-08-22T00:24:26.092Z,2.90
2022-08-22T00:25:26.371Z,3.00
2022-08-22T00:26:26.060Z,3.00
2022-08-22T00:27:26.043Z,2.80
2022-08-22T00:28:26.031Z,2.90
2022-08-22T00:29:26.029Z,2.90
2022-08-22T00:30:26.001Z,3.10
2022-08-22T00:31:25.991Z,2.80
2022-08-22T00:32:25.973Z,2.60
2022-08-22T00:33:25.970Z,2.90
2022-08-22T00:34:26.503Z,2.80
2022-08-22T00:35:25.932Z,2.60
2022-08-22T00:36:25.920Z,2.90
2022-08-22T00:37:25.909Z,3.00
2022-08-22T00:38:25.891Z,2.40
2022-08-22T00:39:25.896Z,2.60
2022-08-22T00:40:25.865Z,2.80
2022-08-22T00:41:25.851Z,2.70
2022-08-22T00:42:29.115Z,2.80
2022-08-22T00:43:26.832Z,2.70
2022-08-22T00:44:25.820Z,2.70
2022-08-22T00:45:25.801Z,2.90
2022-08-22T00:46:25.781Z,2.70
2022-08-22T00:47:25.780Z,2.60
2022-08-22T00:48:25.762Z,2.50
2022-08-22T00:49:25.761Z,2.60
2022-08-22T00:50:25.732Z,2.60
2022-08-22T00:51:25.719Z,3.00
2022-08-22T00:52:25.710Z,2.80
2022-08-22T00:53:25.699Z,2.40
2022-08-22T00:54:25.694Z,2.90
2022-08-22T00:55:25.668Z,2.90
2022-08-22T00:56:25.652Z,2.70
2022-08-22T00:57:25.641Z,2.80
2022-08-22T00:58:25.629Z,3.00
2022-08-22T00:59:25.629Z,2.60
2022-08-22T01:00:25.599Z,3.10
2022-08-22T01:01:25.675Z,3.50
2022-08-22T01:02:25.571Z,3.20
2022-08-22T01:03:25.582Z,3.30
2022-08-22T01:04:25.551Z,2.80
2022-08-22T01:05:25.541Z,2.90
2022-08-22T01:06:25.523Z,2.80
2022-08-22T01:07:25.509Z,2.90
2022-08-22T01:08:26.509Z,3.10
2022-08-22T01:09:25.480Z,3.40
2022-08-22T01:10:25.470Z,3.10
2022-08-22T01:11:25.458Z,3.10
2022-08-22T01:12:25.443Z,3.10
2022-08-22T01:13:25.447Z,3.10
2022-08-22T01:14:34.944Z,2.90
2022-08-22T01:15:26.409Z,3.60
2022-08-22T01:16:25.391Z,3.10
2022-08-22T01:17:25.380Z,3.20
2022-08-22T01:18:25.382Z,3.10
2022-08-22T01:19:25.359Z,2.80
2022-08-22T01:20:25.340Z,3.00
2022-08-22T01:21:25.328Z,3.30
2022-08-22T01:22:25.318Z,3.10
2022-08-22T01:23:25.310Z,2.70
2022-08-22T01:24:25.298Z,2.80
2022-08-22T01:25:25.807Z,2.40
2022-08-22T01:26:25.256Z,2.40
2022-08-22T01:27:25.249Z,2.60
2022-08-22T01:28:25.428Z,2.50
2022-08-22T01:29:28.579Z,2.90
2022-08-22T01:30:25.210Z,2.90
2022-08-22T01:31:25.198Z,2.70
2022-08-22T01:32:25.189Z,2.90
2022-08-22T01:33:25.191Z,3.10
2022-08-22T01:34:25.147Z,3.00
2022-08-22T01:35:25.142Z,2.60
2022-08-22T01:36:25.127Z,2.60
2022-08-22T01:37:25.117Z,2.90
2022-08-22T01:38:25.108Z,2.70
2022-08-22T01:39:25.090Z,3.00
2022-08-22T01:40:25.073Z,3.00
2022-08-22T01:41:25.068Z,2.80
2022-08-22T01:42:25.047Z,2.90
2022-08-22T01:43:58.616Z,3.10
2022-08-22T01:44:26.020Z,3.10
2022-08-22T01:45:25.028Z,3.20
2022-08-22T01:46:25.000Z,3.80
2022-08-22T01:47:25.011Z,4.00
2022-08-22T01:48:24.980Z,3.50
2022-08-22T01:49:24.969Z,3.50
2022-08-22T01:50:24.938Z,3.10
2022-08-22T01:51:24.928Z,3.10
2022-08-22T01:52:24.918Z,2.70
2022-08-22T01:53:24.917Z,3.60
2022-08-22T01:54:24.888Z,2.80
2022-08-22T01:55:24.879Z,2.70
2022-08-22T01:56:24.856Z,2.80
2022-08-22T01:57:24.866Z,2.80
2022-08-22T01:58:24.868Z,3.00
2022-08-22T01:59:32.945Z,2.80
2022-08-22T02:00:34.920Z,2.70
2022-08-22T02:01:25.836Z,3.00
2022-08-22T02:02:24.787Z,2.70
2022-08-22T02:03:24.802Z,3.20
2022-08-22T02:04:24.764Z,3.10
2022-08-22T02:05:24.752Z,2.60
2022-08-22T02:06:24.735Z,2.70
2022-08-22T02:07:31.718Z,3.00
2022-08-22T02:08:25.707Z,2.70
2022-08-22T02:09:24.711Z,3.40
2022-08-22T02:10:24.678Z,2.60
2022-08-22T02:11:24.670Z,2.70
2022-08-22T02:12:24.658Z,2.70
2022-08-22T02:13:24.640Z,2.90
2022-08-22T02:14:24.627Z,2.90
2022-08-22T02:15:24.616Z,3.10
2022-08-22T02:16:24.608Z,3.20
2022-08-22T02:17:24.598Z,3.20
2022-08-22T02:18:24.576Z,2.60
2022-08-22T02:19:24.567Z,3.00
2022-08-22T02:20:24.549Z,2.80
2022-08-22T02:21:24.543Z,2.70
2022-08-22T02:22:24.540Z,2.90
2022-08-22T02:23:24.514Z,2.80
2022-08-22T02:24:24.487Z,2.60
2022-08-22T02:25:24.487Z,2.80
2022-08-22T02:26:24.467Z,2.80
2022-08-22T02:27:24.468Z,2.90
2022-08-22T02:28:24.436Z,2.70
2022-08-22T02:29:24.435Z,3.00
2022-08-22T02:30:24.417Z,3.00
2022-08-22T02:31:24.419Z,3.10
2022-08-22T02:32:24.398Z,3.00
2022-08-22T02:33:24.379Z,2.70
2022-08-22T02:34:24.360Z,2.90
2022-08-22T02:35:24.356Z,3.20
2022-08-22T02:36:24.337Z,2.50
2022-08-22T02:37:24.343Z,3.30
2022-08-22T02:38:24.310Z,3.00
2022-08-22T02:39:24.303Z,3.00
2022-08-22T02:40:24.313Z,2.90
2022-08-22T02:41:24.276Z,3.30
2022-08-22T02:42:24.283Z,3.20
2022-08-22T02:43:24.251Z,3.50
2022-08-22T02:44:24.230Z,3.40
2022-08-22T02:45:24.226Z,2.80
2022-08-22T02:46:24.211Z,4.30
2022-08-22T02:47:24.200Z,3.20
2022-08-22T02:48:24.180Z,3.10
2022-08-22T02:49:24.170Z,3.30
2022-08-22T02:50:24.149Z,3.60
2022-08-22T02:51:24.151Z,3.20
2022-08-22T02:52:24.139Z,3.00
2022-08-22T02:53:24.118Z,3.00
2022-08-22T02:54:24.099Z,3.00
2022-08-22T02:55:24.095Z,3.00
2022-08-22T02:56:24.079Z,2.80
2022-08-22T02:57:24.069Z,3.00
2022-08-22T02:58:24.047Z,3.10
2022-08-22T02:59:24.036Z,3.00
2022-08-22T03:00:31.062Z,3.10
2022-08-22T03:01:25.017Z,3.20
2022-08-22T03:02:24.124Z,2.80
2022-08-22T03:03:23.987Z,3.00
2022-08-22T03:04:23.966Z,2.90
2022-08-22T03:05:23.969Z,3.10
2022-08-22T03:06:23.946Z,3.30
2022-08-22T03:07:23.947Z,3.20
2022-08-22T03:08:23.916Z,3.60
2022-08-22T03:09:23.908Z,3.10
2022-08-22T03:10:23.895Z,3.20
2022-08-22T03:11:23.878Z,3.10
2022-08-22T03:12:23.876Z,3.00
2022-08-22T03:13:23.858Z,3.20
2022-08-22T03:14:23.846Z,3.80
2022-08-22T03:15:23.831Z,3.60
2022-08-22T03:16:23.819Z,3.40
2022-08-22T03:17:23.806Z,3.10
2022-08-22T03:18:23.787Z,3.10
2022-08-22T03:19:23.767Z,3.20
2022-08-22T03:20:23.765Z,3.50
2022-08-22T03:21:23.753Z,3.10
2022-08-22T03:22:23.756Z,3.10
2022-08-22T03:23:23.724Z,3.70
2022-08-22T03:24:23.712Z,2.80
2022-08-22T03:25:23.695Z,3.20
2022-08-22T03:26:23.679Z,3.30
2022-08-22T03:27:32.897Z,3.20
2022-08-22T03:28:24.653Z,3.40
2022-08-22T03:29:23.649Z,3.50
2022-08-22T03:30:23.630Z,3.50
2022-08-22T03:31:23.628Z,2.70
2022-08-22T03:32:23.618Z,3.10
2022-08-22T03:33:23.597Z,3.40
2022-08-22T03:34:23.583Z,2.80
2022-08-22T03:35:23.565Z,2.80
2022-08-22T03:36:23.547Z,2.90
2022-08-22T03:37:23.549Z,3.30
2022-08-22T03:38:23.517Z,3.60
2022-08-22T03:39:23.520Z,3.80
2022-08-22T03:40:23.518Z,3.50
2022-08-22T03:41:24.488Z,3.30
2022-08-22T03:42:23.487Z,3.00
2022-08-22T03:43:23.457Z,3.50
2022-08-22T03:44:23.445Z,3.40
2022-08-22T03:45:23.436Z,3.20
2022-08-22T03:46:23.426Z,2.80
2022-08-22T03:47:23.408Z,3.10
2022-08-22T03:48:23.387Z,3.00
2022-08-22T03:49:23.384Z,3.20
2022-08-22T03:50:23.366Z,3.60
2022-08-22T03:51:23.377Z,3.40
2022-08-22T03:52:23.343Z,4.30
2022-08-22T03:53:23.328Z,3.20
2022-08-22T03:54:23.318Z,3.30
2022-08-22T03:55:23.298Z,3.00
2022-08-22T03:56:23.297Z,2.80
2022-08-22T03:57:23.284Z,3.00
2022-08-22T03:58:27.896Z,3.30
2022-08-22T03:59:24.255Z,3.00
2022-08-22T04:00:23.225Z,3.10
2022-08-22T04:01:23.235Z,3.20
2022-08-22T04:02:42.439Z,3.00
2022-08-22T04:03:24.200Z,3.50
2022-08-22T04:04:23.182Z,3.10
2022-08-22T04:05:23.177Z,3.10
2022-08-22T04:06:23.165Z,3.30
2022-08-22T04:07:31.691Z,3.20
2022-08-22T04:08:26.286Z,3.00
2022-08-22T04:09:23.119Z,2.70
2022-08-22T04:10:23.105Z,3.30
2022-08-22T04:11:23.096Z,3.20
2022-08-22T04:12:23.076Z,3.20
2022-08-22T04:13:24.798Z,3.80
2022-08-22T04:14:23.049Z,3.40
2022-08-22T04:15:23.047Z,3.40
2022-08-22T04:16:23.043Z,3.30
2022-08-22T04:17:23.027Z,3.20
2022-08-22T04:18:22.997Z,3.50
2022-08-22T04:19:22.995Z,3.20
2022-08-22T04:20:22.964Z,3.00
2022-08-22T04:21:22.978Z,3.40
2022-08-22T04:22:22.945Z,3.30
2022-08-22T04:23:22.938Z,3.20
2022-08-22T04:24:22.916Z,3.70
2022-08-22T04:25:22.911Z,3.80
2022-08-22T04:26:22.917Z,4.00
2022-08-22T04:27:22.885Z,3.80
2022-08-22T04:28:22.874Z,3.10
2022-08-22T04:29:22.854Z,3.10
2022-08-22T04:30:22.854Z,2.80
2022-08-22T04:31:22.826Z,3.30
2022-08-22T04:32:22.824Z,3.80
2022-08-22T04:33:22.806Z,3.10
2022-08-22T04:34:22.797Z,3.10
2022-08-22T04:35:22.793Z,3.50
2022-08-22T04:36:22.773Z,3.20
2022-08-22T04:37:22.755Z,3.00
2022-08-22T04:38:22.743Z,3.00
2022-08-22T04:39:22.725Z,3.70
2022-08-22T04:40:22.778Z,3.80
2022-08-22T04:41:22.709Z,3.60
2022-08-22T04:42:32.827Z,4.00
2022-08-22T04:43:23.672Z,3.50
2022-08-22T04:44:22.668Z,3.70
2022-08-22T04:45:22.668Z,4.80
2022-08-22T04:46:22.636Z,5.30
2022-08-22T04:47:22.624Z,5.20
2022-08-22T04:48:22.607Z,5.30
2022-08-22T04:49:22.604Z,5.20
2022-08-22T04:50:22.596Z,4.60
2022-08-22T04:51:22.572Z,4.00
2022-08-22T04:52:22.558Z,3.50
2022-08-22T04:53:22.549Z,4.40
2022-08-22T04:54:22.538Z,5.30
2022-08-22T04:55:22.524Z,4.90
2022-08-22T04:56:22.507Z,4.00
2022-08-22T04:57:22.486Z,3.20
2022-08-22T04:58:22.477Z,4.80
2022-08-22T04:59:22.463Z,3.60
2022-08-22T05:00:22.463Z,5.40
2022-08-22T05:01:22.469Z,4.10
2022-08-22T05:02:22.424Z,3.90
2022-08-22T05:03:22.408Z,3.60
2022-08-22T05:04:22.403Z,3.50
2022-08-22T05:05:22.396Z,4.00
2022-08-22T05:06:22.373Z,3.80
2022-08-22T05:07:22.362Z,3.60
2022-08-22T05:08:22.346Z,3.20
2022-08-22T05:09:22.337Z,3.40
2022-08-22T05:10:22.333Z,4.00
2022-08-22T05:11:22.304Z,4.40
2022-08-22T05:12:22.304Z,4.40
2022-08-22T05:13:22.286Z,5.00
2022-08-22T05:14:22.273Z,5.70
2022-08-22T05:15:23.212Z,3.80
2022-08-22T05:16:22.245Z,3.50
2022-08-22T05:17:22.231Z,3.50
2022-08-22T05:18:22.220Z,3.30
2022-08-22T05:19:29.632Z,4.60
2022-08-22T05:20:23.216Z,3.50
2022-08-22T05:21:22.171Z,3.40
2022-08-22T05:22:22.162Z,3.50
2022-08-22T05:23:22.146Z,3.70
2022-08-22T05:24:22.139Z,4.80
2022-08-22T05:25:22.134Z,5.60
2022-08-22T05:26:22.112Z,5.40
2022-08-22T05:27:22.097Z,5.50
2022-08-22T05:28:22.088Z,5.40
2022-08-22T05:29:22.090Z,5.10
2022-08-22T05:30:22.060Z,3.90
2022-08-22T05:31:23.238Z,3.80
2022-08-22T05:32:22.031Z,3.60
2022-08-22T05:33:22.022Z,3.60
2022-08-22T05:34:22.020Z,4.60
2022-08-22T05:35:21.990Z,6.30
2022-08-22T05:36:21.981Z,5.30
2022-08-22T05:37:21.965Z,4.50
2022-08-22T05:38:21.951Z,6.00
2022-08-22T05:39:21.948Z,6.20
2022-08-22T05:40:22.000Z,5.80
2022-08-22T05:41:21.908Z,5.30
2022-08-22T05:42:21.904Z,5.50
2022-08-22T05:43:21.889Z,5.80
2022-08-22T05:44:21.889Z,6.00
2022-08-22T05:45:21.866Z,5.20
2022-08-22T05:46:26.844Z,5.50
2022-08-22T05:47:22.822Z,5.10
2022-08-22T05:48:21.832Z,5.20
2022-08-22T05:49:21.810Z,5.10
2022-08-22T05:50:21.793Z,5.30
2022-08-22T05:51:21.771Z,6.70
2022-08-22T05:52:22.669Z,5.90
2022-08-22T05:53:21.751Z,5.90
2022-08-22T05:54:21.760Z,5.90
2022-08-22T05:55:22.729Z,5.60
2022-08-22T05:56:21.741Z,5.90
2022-08-22T05:57:21.701Z,5.80
2022-08-22T05:58:21.693Z,5.50
2022-08-22T05:59:21.680Z,5.70
2022-08-22T06:00:21.683Z,5.50
2022-08-22T06:01:21.714Z,6.20
2022-08-22T06:02:21.636Z,6.10
2022-08-22T06:03:21.622Z,6.50
2022-08-22T06:04:21.629Z,6.10
2022-08-22T06:05:21.593Z,5.90
2022-08-22T06:06:21.580Z,5.90
2022-08-22T06:07:21.574Z,5.30
2022-08-22T06:08:21.573Z,5.30
2022-08-22T06:09:21.563Z,4.90
2022-08-22T06:10:21.540Z,5.10
2022-08-22T06:11:22.354Z,5.00
2022-08-22T06:12:22.194Z,5.00
2022-08-22T06:13:24.596Z,4.80
2022-08-22T06:14:21.490Z,4.80
2022-08-22T06:15:21.482Z,4.40
2022-08-22T06:16:21.450Z,4.80
2022-08-22T06:17:21.429Z,4.50
2022-08-22T06:18:21.439Z,4.60
2022-08-22T06:19:21.420Z,5.00
2022-08-22T06:20:21.399Z,4.60
2022-08-22T06:21:21.389Z,4.50
2022-08-22T06:22:21.372Z,4.70
2022-08-22T06:23:21.363Z,4.60
2022-08-22T06:24:21.343Z,4.60
2022-08-22T06:25:21.323Z,4.40
2022-08-22T06:26:21.588Z,4.50
2022-08-22T06:27:21.310Z,4.90
2022-08-22T06:28:21.310Z,4.60
2022-08-22T06:29:21.274Z,4.20
2022-08-22T06:30:21.264Z,4.30
2022-08-22T06:31:21.331Z,4.50
2022-08-22T06:32:31.538Z,4.50
2022-08-22T06:33:22.245Z,5.20
2022-08-22T06:34:21.214Z,4.50
2022-08-22T06:35:21.194Z,4.40
2022-08-22T06:36:21.281Z,4.70
2022-08-22T06:37:21.173Z,4.50
2022-08-22T06:38:21.161Z,4.50
2022-08-22T06:39:21.152Z,5.00
2022-08-22T06:40:21.166Z,4.70
2022-08-22T06:41:21.122Z,4.70
2022-08-22T06:42:21.123Z,5.00
2022-08-22T06:43:21.093Z,4.90
2022-08-22T06:44:21.104Z,4.70
2022-08-22T06:45:21.074Z,5.20
2022-08-22T06:46:21.065Z,5.10
2022-08-22T06:47:21.035Z,5.30
2022-08-22T06:48:21.044Z,4.70
2022-08-22T06:49:21.024Z,4.60
2022-08-22T06:50:21.004Z,5.10
2022-08-22T06:51:20.991Z,4.90
2022-08-22T06:52:20.981Z,4.90
2022-08-22T06:53:20.963Z,5.50
2022-08-22T06:54:20.974Z,5.60
2022-08-22T06:55:20.934Z,5.50
2022-08-22T06:56:20.932Z,5.40
2022-08-22T06:57:20.912Z,5.50
2022-08-22T06:58:20.903Z,5.70
2022-08-22T06:59:20.891Z,5.40
2022-08-22T07:00:20.873Z,5.30
2022-08-22T07:01:20.914Z,5.30
2022-08-22T07:02:20.862Z,5.20
2022-08-22T07:03:20.845Z,5.30
2022-08-22T07:04:20.823Z,5.50
2022-08-22T07:05:20.805Z,5.40
2022-08-22T07:06:20.797Z,4.90
2022-08-22T07:07:20.785Z,5.20
2022-08-22T07:08:20.782Z,5.70
2022-08-22T07:09:27.758Z,5.40
2022-08-22T07:10:20.740Z,4.90
2022-08-22T07:11:20.721Z,4.90
2022-08-22T07:12:20.711Z,5.00
2022-08-22T07:13:20.723Z,4.90
2022-08-22T07:14:20.691Z,5.20
2022-08-22T07:15:20.673Z,5.30
2022-08-22T07:16:20.660Z,4.90
2022-08-22T07:17:20.650Z,5.20
2022-08-22T07:18:20.650Z,5.00
2022-08-22T07:19:20.628Z,4.60
2022-08-22T07:20:20.637Z,5.10
2022-08-22T07:21:20.621Z,5.00
2022-08-22T07:22:20.584Z,5.50
2022-08-22T07:23:20.640Z,5.20
2022-08-22T07:24:20.553Z,5.00
2022-08-22T07:25:20.551Z,4.80
2022-08-22T07:26:20.589Z,4.90
2022-08-22T07:27:20.580Z,4.90
2022-08-22T07:28:20.512Z,4.50
2022-08-22T07:29:21.492Z,4.60
2022-08-22T07:30:28.034Z,5.30
2022-08-22T07:31:21.498Z,4.60
2022-08-22T07:32:20.454Z,4.20
2022-08-22T07:33:26.605Z,4.20
2022-08-22T07:34:21.440Z,3.90
2022-08-22T07:35:20.407Z,4.70
2022-08-22T07:36:22.995Z,4.40
2022-08-22T07:37:20.383Z,4.20
2022-08-22T07:38:20.396Z,4.40
2022-08-22T07:39:20.364Z,4.20
2022-08-22T07:40:20.417Z,4.60
2022-08-22T07:41:20.344Z,3.70
2022-08-22T07:42:20.353Z,4.10
2022-08-22T07:43:20.326Z,5.00
2022-08-22T07:44:20.314Z,4.40
2022-08-22T07:45:20.292Z,4.10
2022-08-22T07:46:20.278Z,3.80
2022-08-22T07:47:22.681Z,4.30
2022-08-22T07:48:25.862Z,4.00
2022-08-22T07:49:21.238Z,4.50
2022-08-22T07:50:20.216Z,4.80
2022-08-22T07:51:20.205Z,4.40
2022-08-22T07:52:20.210Z,3.80
2022-08-22T07:53:20.179Z,4.00
2022-08-22T07:54:20.178Z,4.30
2022-08-22T07:55:20.144Z,4.60
2022-08-22T07:56:20.155Z,3.90
2022-08-22T07:57:20.136Z,4.00
2022-08-22T07:58:20.126Z,3.80
2022-08-22T07:59:20.105Z,4.20
2022-08-22T08:00:20.099Z,4.30
2022-08-22T08:01:20.128Z,3.80
2022-08-22T08:02:20.085Z,3.60
2022-08-22T08:03:20.048Z,4.00
2022-08-22T08:04:20.038Z,3.70
2022-08-22T08:05:20.022Z,3.80
2022-08-22T08:06:20.027Z,4.10
2022-08-22T08:07:20.018Z,4.10
2022-08-22T08:08:19.992Z,3.60
2022-08-22T08:09:19.968Z,3.70
2022-08-22T08:10:19.971Z,5.70
2022-08-22T08:11:19.957Z,4.00
2022-08-22T08:12:19.992Z,3.80
2022-08-22T08:13:19.927Z,3.70
2022-08-22T08:14:19.925Z,3.60
2022-08-22T08:15:19.911Z,3.60
2022-08-22T08:16:19.888Z,3.70
2022-08-22T08:17:19.889Z,3.50
2022-08-22T08:18:19.869Z,3.90
2022-08-22T08:19:19.893Z,3.50
2022-08-22T08:20:19.859Z,3.50
2022-08-22T08:21:19.821Z,4.20
2022-08-22T08:22:19.832Z,3.60
2022-08-22T08:23:23.782Z,3.30
2022-08-22T08:24:19.791Z,3.70
2022-08-22T08:25:19.762Z,3.30
2022-08-22T08:26:19.761Z,3.10
2022-08-22T08:27:19.756Z,2.80
2022-08-22T08:28:19.739Z,3.70
2022-08-22T08:29:19.720Z,3.50
2022-08-22T08:30:19.739Z,3.30
2022-08-22T08:31:19.713Z,3.50
2022-08-22T08:32:19.692Z,2.70
2022-08-22T08:33:26.352Z,3.40
2022-08-22T08:34:20.653Z,3.20
2022-08-22T08:35:19.672Z,3.40
2022-08-22T08:36:19.645Z,3.30
2022-08-22T08:37:19.627Z,3.40
2022-08-22T08:38:19.631Z,2.90
2022-08-22T08:39:19.590Z,3.20
2022-08-22T08:40:19.641Z,2.80
2022-08-22T08:41:22.499Z,3.10
2022-08-22T08:42:19.555Z,3.00
2022-08-22T08:43:19.560Z,2.90
2022-08-22T08:44:19.526Z,2.60
2022-08-22T08:45:19.522Z,2.60
2022-08-22T08:46:19.535Z,3.20
2022-08-22T08:47:19.504Z,2.60
2022-08-22T08:48:19.474Z,3.50
2022-08-22T08:49:19.484Z,2.90
2022-08-22T08:50:19.465Z,2.50
2022-08-22T08:51:19.465Z,3.00
2022-08-22T08:52:19.426Z,2.90
2022-08-22T08:53:19.424Z,2.90
2022-08-22T08:54:19.426Z,2.80
2022-08-22T08:55:22.498Z,2.50
2022-08-22T08:57:20.375Z,3.20
2022-08-22T08:58:19.354Z,2.70
2022-08-22T08:59:19.375Z,2.50
2022-08-22T09:00:19.329Z,2.70
2022-08-22T09:01:19.657Z,2.90
2022-08-22T09:02:20.600Z,2.60
2022-08-22T09:03:25.046Z,2.70
2022-08-22T09:04:20.357Z,2.50
2022-08-22T09:05:19.617Z,2.50
2022-08-22T09:06:19.261Z,2.60
2022-08-22T09:07:19.273Z,2.90
2022-08-22T09:08:19.232Z,2.60
2022-08-22T09:09:19.228Z,2.60
2022-08-22T09:10:19.208Z,2.40
2022-08-22T09:11:19.224Z,2.50
2022-08-22T09:12:20.185Z,2.10
2022-08-22T09:13:19.168Z,2.20
2022-08-22T09:14:19.160Z,2.10
2022-08-22T09:15:19.141Z,1.90
2022-08-22T09:16:19.143Z,2.30
2022-08-22T09:17:19.120Z,2.30
2022-08-22T09:18:19.111Z,2.20
2022-08-22T09:19:19.090Z,1.90
2022-08-22T09:20:19.608Z,2.00
2022-08-22T09:21:30.705Z,2.00
2022-08-22T09:22:20.049Z,2.00
2022-08-22T09:23:19.084Z,1.90
2022-08-22T09:24:19.030Z,1.90
2022-08-22T09:25:19.052Z,1.90
2022-08-22T09:26:19.022Z,2.40
2022-08-22T09:27:19.000Z,1.90
2022-08-22T09:28:18.984Z,2.10
2022-08-22T09:29:18.963Z,2.10
2022-08-22T09:30:19.004Z,1.90
2022-08-22T09:31:32.936Z,2.10
2022-08-22T09:32:19.927Z,2.10
2022-08-22T09:33:18.944Z,1.80
2022-08-22T09:34:25.386Z,2.10
2022-08-22T09:35:19.896Z,1.80
2022-08-22T09:36:18.881Z,1.90
2022-08-22T09:37:18.886Z,1.80
2022-08-22T09:38:18.852Z,2.00
2022-08-22T09:39:18.854Z,1.70
2022-08-22T09:40:22.234Z,1.80
2022-08-22T09:41:19.829Z,1.70
2022-08-22T09:42:18.798Z,1.40
2022-08-22T09:43:21.282Z,1.60
2022-08-22T09:44:18.782Z,1.60
2022-08-22T09:45:18.764Z,1.70
2022-08-22T09:46:18.774Z,1.70
2022-08-22T09:47:24.728Z,1.80
2022-08-22T09:49:34.830Z,1.70
2022-08-22T09:50:34.821Z,1.80
2022-08-22T09:51:34.803Z,1.80
2022-08-22T09:52:35.686Z,1.80
2022-08-22T09:53:34.781Z,1.70
2022-08-22T09:54:34.765Z,1.90
2022-08-22T09:55:35.258Z,1.70
2022-08-22T09:57:34.566Z,1.80
2022-08-22T09:58:38.865Z,1.90
2022-08-22T09:59:35.539Z,1.80
2022-08-22T10:00:34.543Z,1.80
2022-08-22T10:01:34.569Z,1.70
2022-08-22T10:02:34.492Z,1.50
2022-08-22T10:03:34.487Z,1.60
2022-08-22T10:04:34.470Z,2.00
2022-08-22T10:05:40.894Z,1.80
2022-08-22T10:06:35.444Z,2.00
2022-08-22T10:07:34.461Z,1.60
2022-08-22T10:08:34.419Z,1.90
2022-08-22T10:09:34.409Z,1.80
2022-08-22T10:10:34.414Z,1.60
2022-08-22T10:11:34.387Z,2.00
2022-08-22T10:12:35.734Z,1.70
2022-08-22T10:13:34.359Z,1.80
2022-08-22T10:14:34.343Z,1.70
2022-08-22T10:15:34.359Z,1.50
2022-08-22T10:16:34.323Z,1.70
2022-08-22T10:17:34.358Z,1.60
2022-08-22T10:18:35.298Z,1.60
2022-08-22T10:19:34.282Z,1.80
2022-08-22T10:20:34.270Z,1.90
2022-08-22T10:21:34.260Z,1.80
2022-08-22T10:22:34.233Z,1.80
2022-08-22T10:23:34.242Z,2.00
2022-08-22T10:24:34.222Z,2.00
2022-08-22T10:25:35.202Z,2.00
2022-08-22T10:26:38.415Z,2.10
2022-08-22T10:27:34.182Z,1.80
2022-08-22T10:28:34.163Z,1.90
2022-08-22T10:29:34.165Z,2.00
2022-08-22T10:30:34.142Z,1.90
2022-08-22T10:31:34.123Z,1.90
2022-08-22T10:32:34.111Z,2.00
2022-08-22T10:33:34.101Z,1.80
2022-08-22T10:34:34.098Z,1.80
2022-08-22T10:35:34.346Z,1.80
2022-08-22T10:36:34.056Z,1.70
2022-08-22T10:37:34.041Z,2.20
2022-08-22T10:38:34.343Z,1.50
2022-08-22T10:39:35.034Z,1.80
2022-08-22T10:40:34.004Z,2.00
2022-08-22T10:41:34.010Z,2.20
2022-08-22T10:42:35.704Z,1.80
2022-08-22T10:43:33.999Z,1.90
2022-08-22T10:44:33.964Z,1.70
2022-08-22T10:45:35.573Z,1.80
2022-08-22T10:46:33.943Z,1.90
2022-08-22T10:47:33.956Z,1.90
2022-08-22T10:48:33.904Z,1.50
2022-08-22T10:49:33.909Z,1.80
2022-08-22T10:50:33.878Z,1.80
2022-08-22T10:51:33.863Z,1.60
2022-08-22T10:52:33.851Z,1.60
2022-08-22T10:53:34.814Z,1.80
2022-08-22T10:54:34.119Z,1.90
2022-08-22T10:55:33.832Z,2.00
2022-08-22T10:56:33.795Z,1.80
2022-08-22T10:57:33.783Z,1.80
2022-08-22T10:58:33.775Z,1.80
2022-08-22T10:59:33.788Z,1.80
2022-08-22T11:00:33.901Z,1.80
2022-08-22T11:01:37.680Z,2.00
2022-08-22T11:02:34.726Z,1.90
2022-08-22T11:03:33.776Z,1.80
2022-08-22T11:04:33.686Z,1.80
2022-08-22T11:05:33.685Z,1.70
2022-08-22T11:06:33.668Z,1.70
2022-08-22T11:07:33.658Z,1.80
2022-08-22T11:08:34.733Z,2.10
2022-08-22T11:09:37.119Z,1.60
2022-08-22T11:10:34.807Z,1.80
2022-08-22T11:11:33.606Z,1.70
2022-08-22T11:12:35.019Z,1.70
2022-08-22T11:13:33.674Z,1.70
2022-08-22T11:14:33.557Z,1.80
2022-08-22T11:15:35.019Z,1.90
2022-08-22T11:16:36.536Z,2.00
2022-08-22T11:17:40.733Z,1.90
2022-08-22T11:18:34.519Z,1.90
2022-08-22T11:19:33.507Z,1.80
2022-08-22T11:20:33.500Z,2.00
2022-08-22T11:21:33.491Z,1.90
2022-08-22T11:22:33.458Z,1.90
2022-08-22T11:23:33.552Z,2.10
2022-08-22T11:24:35.285Z,1.80
2022-08-22T11:25:38.921Z,1.60
2022-08-22T11:26:35.780Z,2.20
2022-08-22T11:27:38.105Z,1.90
2022-08-22T11:28:34.389Z,2.10
2022-08-22T11:29:33.383Z,2.10
2022-08-22T11:30:36.488Z,2.10
2022-08-22T11:31:36.782Z,1.90
2022-08-22T11:32:33.330Z,2.00
2022-08-22T11:33:37.415Z,1.90
2022-08-22T11:34:34.300Z,1.70
2022-08-22T11:35:33.302Z,2.10
2022-08-22T11:36:33.290Z,1.70
2022-08-22T11:37:42.712Z,2.00
2022-08-22T11:38:36.119Z,1.70
2022-08-22T11:39:33.241Z,1.60
2022-08-22T11:40:33.642Z,2.00
2022-08-22T11:41:33.224Z,2.00
2022-08-22T11:42:33.239Z,2.00
2022-08-22T11:43:33.190Z,2.30
2022-08-22T11:44:34.452Z,2.00
2022-08-22T11:45:34.179Z,1.80
2022-08-22T11:46:33.152Z,2.20
2022-08-22T11:47:33.143Z,2.10
2022-08-22T11:48:33.142Z,2.00
2022-08-22T11:49:33.160Z,1.80
2022-08-22T11:50:33.090Z,1.90
2022-08-22T11:51:34.185Z,2.00
2022-08-22T11:52:33.074Z,2.00
2022-08-22T11:53:33.063Z,2.30
2022-08-22T11:54:33.074Z,2.10
2022-08-22T11:55:47.627Z,2.10
2022-08-22T11:56:33.017Z,2.00
2022-08-22T11:57:33.000Z,2.20
2022-08-22T11:58:33.029Z,2.10
2022-08-22T11:59:32.976Z,2.60
2022-08-22T12:00:33.980Z,2.10
2022-08-22T12:01:34.197Z,2.50
2022-08-22T12:02:33.018Z,2.20
2022-08-22T12:03:32.928Z,2.10
2022-08-22T12:04:32.919Z,2.40
2022-08-22T12:05:32.921Z,2.30
2022-08-22T12:06:34.704Z,2.30
2022-08-22T12:07:32.891Z,2.00
2022-08-22T12:08:32.866Z,2.40
2022-08-22T12:09:33.827Z,2.20
2022-08-22T12:10:32.860Z,2.50
2022-08-22T12:11:32.820Z,2.50
2022-08-22T12:12:32.840Z,2.10
2022-08-22T12:13:35.040Z,2.30
2022-08-22T12:14:32.785Z,2.30
2022-08-22T12:15:33.334Z,2.10
2022-08-22T12:16:32.770Z,2.40
2022-08-22T12:17:55.156Z,2.20
2022-08-22T12:18:33.739Z,2.40
2022-08-22T12:19:33.086Z,2.30
2022-08-22T12:20:32.711Z,2.30
2022-08-22T12:21:32.693Z,2.50
2022-08-22T12:22:32.690Z,2.00
2022-08-22T12:23:43.388Z,2.30
2022-08-22T12:24:33.670Z,2.40
2022-08-22T12:25:32.633Z,2.50
2022-08-22T12:26:32.633Z,2.60
2022-08-22T12:27:32.637Z,2.20
2022-08-22T12:28:32.607Z,2.10
2022-08-22T12:29:33.979Z,2.50
2022-08-22T12:30:33.572Z,2.30
2022-08-22T12:31:32.564Z,2.30
2022-08-22T12:32:32.561Z,2.50
2022-08-22T12:33:33.174Z,2.20
2022-08-22T12:34:32.525Z,2.00
2022-08-22T12:35:32.516Z,2.20
2022-08-22T12:36:32.503Z,2.30
2022-08-22T12:37:32.494Z,2.30
2022-08-22T12:38:36.080Z,2.30
2022-08-22T12:39:33.469Z,2.00
2022-08-22T12:40:32.480Z,2.20
2022-08-22T12:41:34.818Z,2.40
2022-08-22T12:42:32.444Z,1.90
2022-08-22T12:43:32.544Z,2.00
2022-08-22T12:44:32.394Z,1.90
2022-08-22T12:45:32.374Z,1.80
2022-08-22T12:46:32.377Z,2.40
2022-08-22T12:47:32.365Z,2.20
2022-08-22T12:48:32.344Z,2.00
2022-08-22T12:49:32.324Z,1.90
2022-08-22T12:50:32.315Z,2.10
2022-08-22T12:51:32.295Z,2.20
2022-08-22T12:52:32.314Z,2.30
2022-08-22T12:53:32.274Z,2.00
2022-08-22T12:54:32.271Z,2.20
2022-08-22T12:55:32.254Z,2.10
2022-08-22T12:56:32.247Z,2.10
2022-08-22T12:57:32.237Z,1.90
2022-08-22T12:58:33.682Z,2.20
2022-08-22T12:59:32.200Z,2.30
2022-08-22T13:00:32.288Z,2.10
2022-08-22T13:01:34.222Z,2.20
2022-08-22T13:02:32.168Z,2.30
2022-08-22T13:03:32.136Z,2.20
2022-08-22T13:04:33.494Z,2.30
2022-08-22T13:05:34.228Z,2.10
2022-08-22T13:06:33.128Z,2.30
2022-08-22T13:07:32.094Z,2.20
2022-08-22T13:08:32.101Z,2.00
2022-08-22T13:09:32.084Z,2.50
2022-08-22T13:10:32.081Z,2.40
2022-08-22T13:11:32.049Z,2.30
2022-08-22T13:12:32.039Z,2.10
2022-08-22T13:13:36.843Z,1.90
2022-08-22T13:14:33.008Z,1.80
2022-08-22T13:15:31.993Z,1.80